createdAt,value
2017-12-08T00:01:57.811Z,7.60
2017-12-08T00:04:24.330Z,7.70
2017-12-08T00:06:50.895Z,7.80
2017-12-08T00:09:17.533Z,7.90
2017-12-08T00:11:44.112Z,8.00
2017-12-08T00:14:10.584Z,8.10
2017-12-08T00:16:37.128Z,8.10
2017-12-08T00:19:03.596Z,8.00
2017-12-08T00:21:30.120Z,7.80
2017-12-08T00:23:57.355Z,7.30
2017-12-08T00:26:24.033Z,7.30
2017-12-08T00:28:50.640Z,6.90
2017-12-08T00:31:17.207Z,6.60
2017-12-08T00:33:44.420Z,6.10
2017-12-08T00:36:10.918Z,6.00
2017-12-08T00:38:37.450Z,5.80
2017-12-08T00:41:04.663Z,5.50
2017-12-08T00:43:31.150Z,5.50
2017-12-08T00:45:58.359Z,5.40
2017-12-08T00:48:24.838Z,5.40
2017-12-08T00:50:52.537Z,5.30
2017-12-08T00:53:19.007Z,5.30
2017-12-08T00:55:45.492Z,5.20
2017-12-08T00:58:12.717Z,5.20
2017-12-08T01:00:39.936Z,5.20
2017-12-08T01:03:06.473Z,5.20
2017-12-08T01:05:32.932Z,5.30
2017-12-08T01:07:59.447Z,5.40
2017-12-08T01:10:26.075Z,5.40
2017-12-08T01:12:53.279Z,5.40
2017-12-08T01:15:19.758Z,5.40
2017-12-08T01:17:47.013Z,5.30
2017-12-08T01:20:14.282Z,5.30
2017-12-08T01:22:40.763Z,5.20
2017-12-08T01:25:07.239Z,5.30
2017-12-08T01:27:33.712Z,5.20
2017-12-08T01:30:00.176Z,5.10
2017-12-08T01:32:26.667Z,5.20
2017-12-08T01:34:53.856Z,5.20
2017-12-08T01:37:20.335Z,5.10
2017-12-08T01:39:46.790Z,5.10
2017-12-08T01:42:13.215Z,5.10
2017-12-08T01:44:39.692Z,5.10
2017-12-08T01:47:06.871Z,5.10
2017-12-08T01:49:33.352Z,5.10
2017-12-08T01:51:59.827Z,5.20
2017-12-08T01:54:27.019Z,5.20
2017-12-08T01:56:53.519Z,5.20
2017-12-08T01:59:20.694Z,5.40
2017-12-08T02:01:47.275Z,5.30
2017-12-08T02:04:13.747Z,5.40
2017-12-08T02:06:40.944Z,5.60
2017-12-08T02:09:07.415Z,5.60
2017-12-08T02:11:33.850Z,5.70
2017-12-08T02:14:01.501Z,5.80
2017-12-08T02:16:28.019Z,5.80
2017-12-08T02:18:54.503Z,5.80
2017-12-08T02:21:21.000Z,5.80
2017-12-08T02:23:47.499Z,5.80
2017-12-08T02:26:14.703Z,5.90
2017-12-08T02:28:41.327Z,5.90
2017-12-08T02:31:07.895Z,5.80
2017-12-08T02:33:34.375Z,6.00
2017-12-08T02:36:01.033Z,6.00
2017-12-08T02:38:28.246Z,6.00
2017-12-08T02:40:54.710Z,6.00
2017-12-08T02:43:21.266Z,6.10
2017-12-08T02:45:48.575Z,6.10
2017-12-08T02:48:15.029Z,6.10
2017-12-08T02:50:41.578Z,6.10
2017-12-08T02:53:08.033Z,6.10
2017-12-08T02:55:35.306Z,6.20
2017-12-08T02:58:02.509Z,6.20
2017-12-08T03:00:28.967Z,6.20
2017-12-08T03:02:55.483Z,6.30
2017-12-08T03:05:22.127Z,6.30
2017-12-08T03:07:48.562Z,6.40
2017-12-08T03:10:15.052Z,6.30
2017-12-08T03:12:42.247Z,6.30
2017-12-08T03:15:08.663Z,6.30
2017-12-08T03:17:36.019Z,6.30
2017-12-08T03:20:03.214Z,6.30
2017-12-08T03:22:29.763Z,6.30
2017-12-08T03:24:56.242Z,6.30
2017-12-08T03:27:23.423Z,6.30
2017-12-08T03:29:49.916Z,6.30
2017-12-08T03:32:16.432Z,6.40
2017-12-08T03:34:42.976Z,6.30
2017-12-08T03:37:09.518Z,6.30
2017-12-08T03:39:35.997Z,6.20
2017-12-08T03:42:02.455Z,6.20
2017-12-08T03:44:29.667Z,6.10
2017-12-08T03:46:56.148Z,6.10
2017-12-08T03:49:23.303Z,6.10
2017-12-08T03:51:50.727Z,6.00
2017-12-08T03:54:17.199Z,6.00
2017-12-08T03:56:44.377Z,5.90
2017-12-08T03:59:11.071Z,5.90
2017-12-08T04:01:37.608Z,5.90
2017-12-08T04:04:04.088Z,5.90
2017-12-08T04:06:30.528Z,5.90
2017-12-08T04:08:57.711Z,6.00
2017-12-08T04:14:20.721Z,5.90
2017-12-08T04:16:48.006Z,5.90
2017-12-08T04:19:14.477Z,5.90
2017-12-08T04:21:40.941Z,5.90
2017-12-08T04:24:07.449Z,5.80
2017-12-08T04:26:33.898Z,5.80
2017-12-08T04:29:00.408Z,5.80
2017-12-08T04:31:26.908Z,5.80
2017-12-08T04:33:53.369Z,5.80
2017-12-08T04:36:20.607Z,5.80
2017-12-08T04:38:47.039Z,5.80
2017-12-08T04:41:13.574Z,5.80
2017-12-08T04:43:40.036Z,5.80
2017-12-08T04:46:06.657Z,5.80
2017-12-08T04:48:33.137Z,5.80
2017-12-08T04:51:00.327Z,5.80
2017-12-08T04:53:26.804Z,5.70
2017-12-08T04:55:53.249Z,5.70
2017-12-08T04:58:20.436Z,5.60
2017-12-08T05:00:46.930Z,5.60
2017-12-08T05:03:13.392Z,5.60
2017-12-08T05:05:40.596Z,5.60
2017-12-08T05:08:07.063Z,5.50
2017-12-08T05:10:33.526Z,5.50
2017-12-08T05:13:00.772Z,5.40
2017-12-08T05:15:27.258Z,5.40
2017-12-08T05:17:53.768Z,5.40
2017-12-08T05:20:20.966Z,5.40
2017-12-08T05:22:47.556Z,5.40
2017-12-08T05:25:14.039Z,5.50
2017-12-08T05:27:40.486Z,5.40
2017-12-08T05:30:06.961Z,5.40
2017-12-08T05:32:33.559Z,5.40
2017-12-08T05:35:00.184Z,5.40
2017-12-08T05:37:26.651Z,5.40
2017-12-08T05:39:53.124Z,5.40
2017-12-08T05:42:19.605Z,5.20
2017-12-08T05:44:46.065Z,5.00
2017-12-08T05:47:12.611Z,4.90
2017-12-08T05:49:39.056Z,4.90
2017-12-08T05:52:05.521Z,4.80
2017-12-08T05:54:32.040Z,4.80
2017-12-08T05:57:05.502Z,4.80
2017-12-08T05:59:32.079Z,4.90
2017-12-08T06:01:59.476Z,4.90
2017-12-08T06:04:25.931Z,4.90
2017-12-08T06:06:53.159Z,4.80
2017-12-08T06:09:19.581Z,4.80
2017-12-08T06:11:46.067Z,4.70
2017-12-08T06:14:13.268Z,4.50
2017-12-08T06:16:39.730Z,4.50
2017-12-08T06:19:06.377Z,4.40
2017-12-08T06:21:32.879Z,4.40
2017-12-08T06:23:59.327Z,4.30
2017-12-08T06:26:25.772Z,4.30
2017-12-08T06:28:52.179Z,4.30
2017-12-08T06:31:18.630Z,4.30
2017-12-08T06:33:45.026Z,4.30
2017-12-08T06:36:11.655Z,4.20
2017-12-08T06:38:38.051Z,4.20
2017-12-08T06:41:04.635Z,4.20
2017-12-08T06:43:31.031Z,4.20
2017-12-08T06:45:57.444Z,4.20
2017-12-08T06:48:23.871Z,4.10
2017-12-08T06:50:51.035Z,4.10
2017-12-08T06:53:18.229Z,4.10
2017-12-08T06:55:44.644Z,4.10
2017-12-08T06:58:11.054Z,4.10
2017-12-08T07:00:38.230Z,4.00
2017-12-08T07:03:04.639Z,4.00
2017-12-08T07:05:31.851Z,3.90
2017-12-08T07:07:58.405Z,3.90
2017-12-08T07:10:24.890Z,3.90
2017-12-08T07:12:52.203Z,3.90
2017-12-08T07:15:18.619Z,3.90
2017-12-08T07:17:45.051Z,3.70
2017-12-08T07:20:11.499Z,3.80
2017-12-08T07:22:37.936Z,3.80
2017-12-08T07:25:04.377Z,3.80
2017-12-08T07:27:30.851Z,3.70
2017-12-08T07:29:57.315Z,3.70
2017-12-08T07:32:24.462Z,3.60
2017-12-08T07:34:50.910Z,3.60
2017-12-08T07:37:18.218Z,3.50
2017-12-08T07:39:44.627Z,3.50
2017-12-08T07:42:11.030Z,3.40
2017-12-08T07:44:38.194Z,3.30
2017-12-08T07:47:12.407Z,3.30
2017-12-08T07:49:39.634Z,3.30
2017-12-08T07:52:06.318Z,3.30
2017-12-08T07:54:33.495Z,3.30
2017-12-08T07:56:59.922Z,3.20
2017-12-08T07:59:26.311Z,3.30
2017-12-08T08:01:52.878Z,3.20
2017-12-08T08:04:20.140Z,3.30
2017-12-08T08:06:47.314Z,3.20
2017-12-08T08:09:13.803Z,3.10
2017-12-08T08:11:40.239Z,3.30
2017-12-08T08:14:06.675Z,3.20
2017-12-08T08:16:33.125Z,3.30
2017-12-08T08:18:59.536Z,3.30
2017-12-08T08:21:26.070Z,3.20
2017-12-08T08:23:52.646Z,3.30
2017-12-08T08:26:19.111Z,3.30
2017-12-08T08:28:46.294Z,3.40
2017-12-08T08:31:12.715Z,3.40
2017-12-08T08:33:39.916Z,3.40
2017-12-08T08:36:06.332Z,3.40
2017-12-08T08:38:32.852Z,3.40
2017-12-08T08:41:00.037Z,3.40
2017-12-08T08:43:26.499Z,3.40
2017-12-08T08:45:52.938Z,3.40
2017-12-08T08:48:19.365Z,3.40
2017-12-08T08:50:45.794Z,3.40
2017-12-08T08:53:19.322Z,3.50
2017-12-08T08:55:45.786Z,3.50
2017-12-08T08:58:12.967Z,3.60
2017-12-08T09:00:39.507Z,3.60
2017-12-08T09:03:06.000Z,3.50
2017-12-08T09:05:32.505Z,3.50
2017-12-08T09:08:00.659Z,3.50
2017-12-08T09:10:28.852Z,3.50
2017-12-08T09:12:55.290Z,3.50
2017-12-08T09:15:21.737Z,3.50
2017-12-08T09:17:48.231Z,3.50
2017-12-08T09:20:15.493Z,3.40
2017-12-08T09:22:42.788Z,3.40
2017-12-08T09:25:09.260Z,3.40
2017-12-08T09:27:35.679Z,3.50
2017-12-08T09:30:02.091Z,3.50
2017-12-08T09:32:28.530Z,3.50
2017-12-08T09:34:54.971Z,3.60
2017-12-08T09:37:22.243Z,3.60
2017-12-08T09:39:48.734Z,3.60
2017-12-08T09:42:15.155Z,3.60
2017-12-08T09:44:41.642Z,3.70
2017-12-08T09:47:08.081Z,3.60
2017-12-08T09:49:34.556Z,3.70
2017-12-08T09:52:01.076Z,4.10
2017-12-08T09:54:27.678Z,4.50
2017-12-08T09:56:54.862Z,4.30
2017-12-08T09:59:21.283Z,4.30
2017-12-08T10:01:48.510Z,4.00
2017-12-08T10:04:15.802Z,3.80
2017-12-08T10:06:43.016Z,3.60
2017-12-08T10:09:09.446Z,3.60
2017-12-08T10:11:35.883Z,3.60
2017-12-08T10:14:03.809Z,3.70
2017-12-08T10:16:30.247Z,3.70
2017-12-08T10:18:57.447Z,3.90
2017-12-08T10:21:23.978Z,3.90
2017-12-08T10:23:50.453Z,4.10
2017-12-08T10:26:16.943Z,4.60
2017-12-08T10:28:43.350Z,5.20
2017-12-08T10:31:10.544Z,6.00
2017-12-08T10:33:36.982Z,6.00
2017-12-08T10:36:03.427Z,5.70
2017-12-08T10:38:30.155Z,6.00
2017-12-08T10:40:56.614Z,6.60
2017-12-08T10:43:23.142Z,6.50
2017-12-08T10:45:49.679Z,6.10
2017-12-08T10:48:16.315Z,5.40
2017-12-08T10:50:43.842Z,5.00
2017-12-08T10:53:12.027Z,4.40
2017-12-08T10:55:39.192Z,4.20
2017-12-08T10:58:06.379Z,4.40
2017-12-08T11:00:38.963Z,4.40
2017-12-08T11:03:05.395Z,5.00
2017-12-08T11:05:32.006Z,5.40
2017-12-08T11:07:59.208Z,5.20
2017-12-08T11:10:25.677Z,5.20
2017-12-08T11:12:52.274Z,5.60
2017-12-08T11:15:18.743Z,5.80
2017-12-08T11:17:45.180Z,5.80
2017-12-08T11:20:11.598Z,5.60
2017-12-08T11:22:38.070Z,5.30
2017-12-08T11:25:04.480Z,5.00
2017-12-08T11:27:30.959Z,5.10
2017-12-08T11:29:57.449Z,5.40
2017-12-08T11:32:23.942Z,5.80
2017-12-08T11:34:51.160Z,6.40
2017-12-08T11:37:17.612Z,6.40
2017-12-08T11:39:44.058Z,6.60
2017-12-08T11:42:10.527Z,6.30
2017-12-08T11:44:37.708Z,5.70
2017-12-08T11:47:04.640Z,5.70
2017-12-08T11:49:31.067Z,5.40
2017-12-08T11:51:58.215Z,5.10
2017-12-08T11:54:25.515Z,5.10
2017-12-08T11:56:51.988Z,5.10
2017-12-08T11:59:20.018Z,5.20
2017-12-08T12:01:46.435Z,5.20
2017-12-08T12:04:13.652Z,5.20
2017-12-08T12:06:40.166Z,5.20
2017-12-08T12:09:06.621Z,5.30
2017-12-08T12:11:33.703Z,5.40
2017-12-08T12:14:00.310Z,5.70
2017-12-08T12:16:26.730Z,5.50
2017-12-08T12:18:53.238Z,5.20
2017-12-08T12:21:20.494Z,6.50
2017-12-08T12:23:47.677Z,7.50
2017-12-08T12:26:14.114Z,7.50
2017-12-08T12:28:40.657Z,8.00
2017-12-08T12:31:07.087Z,8.00
2017-12-08T12:33:33.678Z,8.40
2017-12-08T12:36:00.146Z,8.00
2017-12-08T12:38:27.323Z,8.40
2017-12-08T12:40:53.763Z,8.50
2017-12-08T12:43:20.306Z,8.20
2017-12-08T12:45:47.731Z,7.40
2017-12-08T12:48:14.338Z,7.60
2017-12-08T12:50:40.779Z,7.90
2017-12-08T12:53:07.199Z,7.60
2017-12-08T12:55:33.758Z,7.00
2017-12-08T12:58:00.194Z,6.50
2017-12-08T13:00:26.728Z,6.10
2017-12-08T13:02:53.242Z,5.60
2017-12-08T13:05:19.693Z,5.50
2017-12-08T13:07:46.351Z,5.40
2017-12-08T13:10:12.877Z,5.20
2017-12-08T13:12:40.029Z,4.60
2017-12-08T13:15:07.281Z,3.70
2017-12-08T13:17:33.886Z,3.70
2017-12-08T13:20:00.531Z,3.20
2017-12-08T13:22:26.993Z,2.90
2017-12-08T13:24:54.168Z,2.00
2017-12-08T13:27:20.655Z,1.90
2017-12-08T13:29:47.163Z,1.90
2017-12-08T13:32:13.743Z,1.80
2017-12-08T13:34:40.191Z,1.70
2017-12-08T13:37:06.642Z,1.70
2017-12-08T13:39:34.022Z,1.50
2017-12-08T13:42:00.465Z,1.50
2017-12-08T13:44:27.013Z,1.40
2017-12-08T13:46:53.440Z,1.30
2017-12-08T13:49:19.956Z,1.30
2017-12-08T13:51:46.388Z,1.40
2017-12-08T13:57:20.220Z,1.40
2017-12-08T13:59:47.501Z,1.40
2017-12-08T14:02:13.978Z,1.30
2017-12-08T14:04:40.638Z,1.30
2017-12-08T14:07:07.108Z,1.40
2017-12-08T14:09:34.279Z,1.30
2017-12-08T14:12:00.726Z,1.30
2017-12-08T14:14:27.194Z,1.30
2017-12-08T14:16:53.891Z,1.10
2017-12-08T14:19:20.346Z,1.10
2017-12-08T14:21:46.924Z,1.10
2017-12-08T14:24:13.346Z,1.10
2017-12-08T14:26:39.793Z,1.10
2017-12-08T14:29:06.253Z,1.10
2017-12-08T14:31:32.807Z,1.10
2017-12-08T14:34:00.012Z,1.20
2017-12-08T14:36:26.492Z,1.20
2017-12-08T14:38:53.031Z,1.20
2017-12-08T14:41:19.519Z,1.20
2017-12-08T14:43:45.975Z,1.20
2017-12-08T14:46:12.395Z,1.10
2017-12-08T14:48:38.860Z,1.10
2017-12-08T14:51:05.602Z,1.00
2017-12-08T14:53:32.128Z,1.10
2017-12-08T14:55:58.730Z,1.10
2017-12-08T14:58:27.613Z,1.10
2017-12-08T15:00:54.305Z,1.00
2017-12-08T15:03:20.910Z,1.00
2017-12-08T15:05:48.115Z,1.00
2017-12-08T15:08:14.579Z,0.90
2017-12-08T15:10:41.017Z,1.00
2017-12-08T15:13:07.486Z,1.00
2017-12-08T15:15:34.897Z,1.00
2017-12-08T15:18:01.428Z,1.00
2017-12-08T15:20:27.908Z,1.00
2017-12-08T15:22:54.699Z,1.00
2017-12-08T15:25:21.398Z,1.00
2017-12-08T15:27:47.886Z,1.10
2017-12-08T15:30:14.343Z,1.00
2017-12-08T15:32:40.940Z,1.00
2017-12-08T15:35:08.169Z,1.00
2017-12-08T15:37:34.735Z,1.00
2017-12-08T15:40:02.006Z,1.00
2017-12-08T15:42:28.497Z,1.00
2017-12-08T15:44:54.919Z,1.00
2017-12-08T15:47:21.459Z,1.00
2017-12-08T15:49:47.902Z,1.00
2017-12-08T15:52:14.665Z,1.00
2017-12-08T15:54:41.337Z,1.00
2017-12-08T15:57:09.910Z,0.90
2017-12-08T15:59:36.383Z,0.90
2017-12-08T16:02:02.823Z,0.90
2017-12-08T16:04:29.294Z,0.80
2017-12-08T16:06:55.771Z,0.80
2017-12-08T16:09:22.299Z,0.70
2017-12-08T16:11:48.738Z,0.70
2017-12-08T16:14:15.281Z,0.70
2017-12-08T16:16:43.181Z,0.60
2017-12-08T16:19:10.481Z,0.60
2017-12-08T16:21:37.005Z,0.60
2017-12-08T16:24:03.484Z,0.60
2017-12-08T16:29:25.258Z,0.60
2017-12-08T16:31:52.415Z,0.60
2017-12-08T16:34:19.628Z,0.50
2017-12-08T16:36:46.234Z,0.50
2017-12-08T16:39:12.683Z,0.40
2017-12-08T16:41:39.124Z,0.50
2017-12-08T16:44:05.565Z,0.50
2017-12-08T16:46:32.023Z,0.40
2017-12-08T16:48:58.459Z,0.40
2017-12-08T16:51:24.927Z,0.40
2017-12-08T16:53:52.154Z,0.30
2017-12-08T16:56:18.744Z,0.30
2017-12-08T16:58:46.167Z,0.30
2017-12-08T17:01:12.559Z,0.30
2017-12-08T17:03:39.068Z,0.30
2017-12-08T17:06:05.508Z,0.30
2017-12-08T17:08:32.747Z,0.30
2017-12-08T17:11:00.662Z,0.30
2017-12-08T17:13:27.100Z,0.30
2017-12-08T17:15:53.658Z,0.30
2017-12-08T17:18:20.080Z,0.30
2017-12-08T17:20:46.630Z,0.40
2017-12-08T17:23:13.067Z,0.40
2017-12-08T17:25:39.499Z,0.40
2017-12-08T17:28:05.983Z,0.50
2017-12-08T17:30:32.588Z,0.50
2017-12-08T17:32:59.064Z,0.50
2017-12-08T17:35:25.564Z,0.60
2017-12-08T17:37:52.011Z,0.60
2017-12-08T17:40:18.599Z,0.70
2017-12-08T17:42:45.049Z,0.70
2017-12-08T17:45:11.588Z,0.70
2017-12-08T17:47:38.899Z,0.80
2017-12-08T17:50:05.399Z,0.80
2017-12-08T17:55:29.581Z,0.90
2017-12-08T17:57:56.787Z,0.90
2017-12-08T18:00:23.218Z,0.90
2017-12-08T18:02:49.790Z,0.80
2017-12-08T18:05:16.296Z,0.80
2017-12-08T18:07:42.975Z,0.90
2017-12-08T18:10:09.455Z,0.90
2017-12-08T18:12:36.633Z,1.00
2017-12-08T18:15:03.147Z,0.90
2017-12-08T18:17:30.325Z,1.00
2017-12-08T18:19:56.819Z,1.00
2017-12-08T18:22:23.322Z,1.10
2017-12-08T18:24:49.770Z,1.10
2017-12-08T18:27:16.222Z,1.10
2017-12-08T18:29:42.624Z,1.10
2017-12-08T18:32:09.086Z,1.20
2017-12-08T18:34:35.554Z,1.20
2017-12-08T18:37:02.843Z,1.20
2017-12-08T18:39:29.275Z,1.20
2017-12-08T18:41:56.435Z,1.20
2017-12-08T18:44:23.658Z,1.20
2017-12-08T18:46:50.138Z,1.20
2017-12-08T18:49:23.648Z,1.20
2017-12-08T18:51:50.079Z,1.20
2017-12-08T18:54:16.575Z,1.20
2017-12-08T18:56:43.038Z,1.10
2017-12-08T18:59:10.423Z,1.00
2017-12-08T19:01:36.892Z,0.90
2017-12-08T19:04:03.371Z,0.90
2017-12-08T19:06:30.586Z,0.90
2017-12-08T19:08:57.184Z,0.90
2017-12-08T19:11:24.435Z,0.90
2017-12-08T19:13:51.702Z,0.90
2017-12-08T19:16:18.145Z,0.90
2017-12-08T19:18:44.608Z,0.90
2017-12-08T19:21:11.164Z,0.80
2017-12-08T19:23:37.679Z,0.70
2017-12-08T19:26:04.191Z,0.60
2017-12-08T19:31:26.683Z,0.40
2017-12-08T19:33:53.179Z,0.30
2017-12-08T19:36:20.347Z,0.20
2017-12-08T19:38:47.577Z,0.20
2017-12-08T19:41:14.107Z,0.20
2017-12-08T19:43:40.582Z,0.20
2017-12-08T19:46:07.058Z,0.20
2017-12-08T19:48:33.516Z,0.20
2017-12-08T19:51:00.024Z,0.20
2017-12-08T19:53:26.500Z,0.20
2017-12-08T19:55:53.057Z,0.30
2017-12-08T19:58:20.215Z,0.20
2017-12-08T20:00:46.714Z,0.20
2017-12-08T20:03:13.124Z,0.20
2017-12-08T20:05:39.594Z,0.20
2017-12-08T20:08:06.107Z,0.20
2017-12-08T20:10:32.652Z,0.30
2017-12-08T20:12:59.132Z,0.30
2017-12-08T20:15:25.624Z,0.30
2017-12-08T20:17:52.154Z,0.30
2017-12-08T20:20:19.494Z,0.30
2017-12-08T20:22:46.003Z,0.30
2017-12-08T20:25:12.430Z,0.30
2017-12-08T20:27:38.884Z,0.30
2017-12-08T20:30:05.348Z,0.30
2017-12-08T20:32:31.884Z,0.30
2017-12-08T20:34:58.319Z,0.30
2017-12-08T20:37:24.809Z,0.20
2017-12-08T20:39:51.357Z,0.30
2017-12-08T20:42:17.910Z,0.30
2017-12-08T20:44:44.377Z,0.30
2017-12-08T20:47:10.843Z,0.30
2017-12-08T20:49:37.372Z,0.30
2017-12-08T20:52:03.855Z,0.30
2017-12-08T20:54:30.355Z,0.30
2017-12-08T20:56:57.619Z,0.30
2017-12-08T20:59:24.847Z,0.30
2017-12-08T21:01:52.544Z,0.30
2017-12-08T21:04:19.924Z,0.20
2017-12-08T21:06:46.443Z,0.20
2017-12-08T21:09:15.479Z,0.20
2017-12-08T21:11:41.989Z,0.20
2017-12-08T21:14:09.199Z,0.20
2017-12-08T21:16:35.735Z,0.20
2017-12-08T21:19:02.219Z,0.30
2017-12-08T21:21:29.544Z,0.30
2017-12-08T21:23:55.963Z,0.30
2017-12-08T21:26:22.447Z,0.30
2017-12-08T21:28:48.875Z,0.30
2017-12-08T21:31:16.086Z,0.20
2017-12-08T21:33:42.614Z,0.20
2017-12-08T21:36:09.101Z,0.20
2017-12-08T21:38:35.724Z,0.20
2017-12-08T21:41:02.198Z,0.10
2017-12-08T21:43:29.399Z,0.10
2017-12-08T21:45:55.821Z,0.00
2017-12-08T21:48:22.312Z,0.10
2017-12-08T21:50:48.844Z,0.10
2017-12-08T21:53:16.475Z,0.10
2017-12-08T21:55:43.117Z,0.10
2017-12-08T21:58:09.839Z,0.10
2017-12-08T22:00:37.143Z,0.00
2017-12-08T22:03:03.593Z,0.00
2017-12-08T22:05:30.130Z,0.10
2017-12-08T22:07:56.581Z,0.10
2017-12-08T22:10:23.064Z,0.10
2017-12-08T22:12:50.255Z,0.10
2017-12-08T22:15:16.699Z,0.00
2017-12-08T22:17:43.397Z,0.10
2017-12-08T22:20:10.582Z,0.10
2017-12-08T22:22:37.119Z,0.10
2017-12-08T22:25:03.587Z,0.10
2017-12-08T22:27:30.045Z,0.10
2017-12-08T22:30:12.252Z,0.10
2017-12-08T22:32:39.290Z,0.10
2017-12-08T22:35:05.884Z,0.10
2017-12-08T22:37:32.642Z,0.10
2017-12-08T22:39:59.137Z,0.00
2017-12-08T22:42:25.624Z,0.00
2017-12-08T22:44:52.071Z,0.00
2017-12-08T22:47:18.590Z,0.00
2017-12-08T22:49:45.008Z,0.00
2017-12-08T22:52:12.480Z,-0.10
2017-12-08T22:54:38.996Z,-0.10
2017-12-08T22:57:05.467Z,-0.10
2017-12-08T22:59:32.072Z,0.00
2017-12-08T23:01:58.551Z,-0.10
2017-12-08T23:04:25.029Z,-0.10
2017-12-08T23:06:51.492Z,-0.20
2017-12-08T23:09:18.663Z,-0.20
2017-12-08T23:11:45.878Z,-0.20
2017-12-08T23:14:12.451Z,-0.20
2017-12-08T23:16:39.833Z,-0.20
2017-12-08T23:19:06.289Z,-0.20
2017-12-08T23:21:32.768Z,-0.20
2017-12-08T23:23:59.254Z,-0.20
2017-12-08T23:26:25.868Z,-0.10
2017-12-08T23:28:52.411Z,-0.20
2017-12-08T23:31:18.896Z,-0.20
2017-12-08T23:33:45.366Z,-0.20
2017-12-08T23:36:11.847Z,-0.20
2017-12-08T23:38:39.148Z,-0.20
2017-12-08T23:41:05.611Z,-0.20
2017-12-08T23:43:32.047Z,-0.20
2017-12-08T23:45:58.519Z,-0.20
2017-12-08T23:48:25.756Z,-0.20
2017-12-08T23:50:52.236Z,-0.30
2017-12-08T23:53:18.742Z,-0.20
2017-12-08T23:55:45.918Z,-0.30
2017-12-08T23:58:12.507Z,-0.40
